createdAt,value
2023-04-10T00:00:31.467Z,63.93
2023-04-10T00:03:04.732Z,64.00
2023-04-10T00:05:37.809Z,64.12
2023-04-10T00:08:12.133Z,64.42
2023-04-10T00:10:44.890Z,64.02
2023-04-10T00:13:19.016Z,64.02
2023-04-10T00:15:52.020Z,63.85
2023-04-10T00:18:24.734Z,63.67
2023-04-10T00:20:57.722Z,64.53
2023-04-10T00:23:34.607Z,63.90
2023-04-10T00:26:07.405Z,63.64
2023-04-10T00:28:41.652Z,63.92
2023-04-10T00:31:14.629Z,63.53
2023-04-10T00:33:47.536Z,63.73
2023-04-10T00:36:20.716Z,64.31
2023-04-10T00:38:53.691Z,63.60
2023-04-10T00:41:26.688Z,63.91
2023-04-10T00:44:01.116Z,63.66
2023-04-10T00:46:35.441Z,64.31
2023-04-10T00:49:09.501Z,63.94
2023-04-10T00:51:43.719Z,64.27
2023-04-10T00:54:16.818Z,64.08
2023-04-10T00:56:51.163Z,63.55
2023-04-10T00:59:25.375Z,64.10
2023-04-10T01:01:58.895Z,64.02
2023-04-10T01:04:33.649Z,64.04
2023-04-10T01:07:12.499Z,64.19
2023-04-10T01:09:49.993Z,64.11
2023-04-10T01:12:38.204Z,64.25
2023-04-10T01:15:14.245Z,63.70
2023-04-10T01:17:51.863Z,63.67
2023-04-10T01:20:26.267Z,63.80
2023-04-10T01:23:22.694Z,63.90
2023-04-10T01:26:00.108Z,64.50
2023-04-10T01:28:54.597Z,63.47
2023-04-10T01:31:35.722Z,64.62
2023-04-10T01:34:11.406Z,63.90
2023-04-10T01:36:56.279Z,64.10
2023-04-10T01:39:31.472Z,64.13
2023-04-10T01:42:08.410Z,64.42
2023-04-10T01:44:49.851Z,64.35
2023-04-10T01:47:25.371Z,63.65
2023-04-10T01:49:59.876Z,63.96
2023-04-10T01:52:34.704Z,64.28
2023-04-10T01:55:29.135Z,64.18
2023-04-10T01:58:08.313Z,64.17
2023-04-10T02:00:44.219Z,64.42
2023-04-10T02:03:18.965Z,64.46
2023-04-10T02:06:04.715Z,64.25
2023-04-10T02:08:41.615Z,64.20
2023-04-10T02:11:26.436Z,64.46
2023-04-10T02:14:02.324Z,64.18
2023-04-10T02:16:40.763Z,64.07
2023-04-10T02:19:14.120Z,64.46
2023-04-10T02:21:51.321Z,64.36
2023-04-10T02:24:24.672Z,64.56
2023-04-10T02:26:57.926Z,64.27
2023-04-10T02:29:30.790Z,64.50
2023-04-10T02:32:05.112Z,63.81
2023-04-10T02:34:37.904Z,64.00
2023-04-10T02:37:12.208Z,64.18
2023-04-10T02:39:45.148Z,64.61
2023-04-10T02:42:20.925Z,64.74
2023-04-10T02:44:54.075Z,64.81
2023-04-10T02:47:28.668Z,64.58
2023-04-10T02:50:01.518Z,64.75
2023-04-10T02:52:39.153Z,63.96
2023-04-10T02:55:12.375Z,64.16
2023-04-10T02:57:47.245Z,64.96
2023-04-10T03:00:20.405Z,64.54
2023-04-10T03:03:26.601Z,64.77
2023-04-10T03:06:01.605Z,64.50
2023-04-10T03:08:40.564Z,64.53
2023-04-10T03:11:13.394Z,63.80
2023-04-10T03:13:46.397Z,64.27
2023-04-10T03:16:19.260Z,64.50
2023-04-10T03:18:54.249Z,64.17
2023-04-10T03:21:27.670Z,64.29
2023-04-10T03:24:01.207Z,64.38
2023-04-10T03:26:34.002Z,64.58
2023-04-10T03:29:06.843Z,64.01
2023-04-10T03:31:40.422Z,64.75
2023-04-10T03:34:14.790Z,64.65
2023-04-10T03:36:48.015Z,64.49
2023-04-10T03:39:21.589Z,65.04
2023-04-10T03:41:54.302Z,64.92
2023-04-10T03:44:30.385Z,64.46
2023-04-10T03:47:05.970Z,65.04
2023-04-10T03:49:40.146Z,64.32
2023-04-10T03:52:13.297Z,65.30
2023-04-10T03:54:46.496Z,64.52
2023-04-10T03:57:29.410Z,64.58
2023-04-10T04:00:09.693Z,65.13
2023-04-10T04:02:55.548Z,64.21
2023-04-10T04:05:53.215Z,64.78
2023-04-10T04:08:31.811Z,64.20
2023-04-10T04:11:23.684Z,64.54
2023-04-10T04:14:12.778Z,64.89
2023-04-10T04:17:10.608Z,64.08
2023-04-10T04:20:10.541Z,64.22
2023-04-10T04:22:50.800Z,63.54
2023-04-10T04:25:49.728Z,64.39
2023-04-10T04:28:43.788Z,64.21
2023-04-10T04:31:35.602Z,63.97
2023-04-10T04:34:37.555Z,63.75
2023-04-10T04:37:28.427Z,63.64
2023-04-10T04:40:22.808Z,63.60
2023-04-10T04:43:22.325Z,63.48
2023-04-10T04:46:25.153Z,63.48
2023-04-10T04:49:18.077Z,63.51
2023-04-10T04:52:11.205Z,63.86
2023-04-10T04:55:07.668Z,63.74
2023-04-10T04:58:02.829Z,63.89
2023-04-10T05:01:08.994Z,63.79
2023-04-10T05:04:00.858Z,64.31
2023-04-10T05:06:51.943Z,64.02
2023-04-10T05:09:39.499Z,63.56
2023-04-10T05:12:27.360Z,63.41
2023-04-10T05:15:03.178Z,63.00
2023-04-10T05:18:14.168Z,63.37
2023-04-10T05:21:08.424Z,64.33
2023-04-10T05:24:07.169Z,63.59
2023-04-10T05:26:58.397Z,63.18
2023-04-10T05:29:48.986Z,62.95
2023-04-10T05:32:49.148Z,63.67
2023-04-10T05:35:29.941Z,63.45
2023-04-10T05:38:09.418Z,63.54
2023-04-10T05:40:49.067Z,63.77
2023-04-10T05:43:51.142Z,63.54
2023-04-10T05:46:40.309Z,62.57
2023-04-10T05:49:53.539Z,63.94
2023-04-10T05:52:46.826Z,62.94
2023-04-10T05:55:38.381Z,63.07
2023-04-10T05:58:45.934Z,63.01
2023-04-10T06:01:47.845Z,63.74
2023-04-10T06:04:22.316Z,63.15
2023-04-10T06:07:00.223Z,63.12
2023-04-10T06:09:33.125Z,62.99
2023-04-10T06:12:07.976Z,63.08
2023-04-10T06:14:42.542Z,62.48
2023-04-10T06:17:15.868Z,62.66
2023-04-10T06:19:48.971Z,63.12
2023-04-10T06:22:25.240Z,62.93
2023-04-10T06:24:58.029Z,62.77
2023-04-10T06:27:30.874Z,62.94
2023-04-10T06:30:04.300Z,62.69
2023-04-10T06:32:36.975Z,63.05
2023-04-10T06:35:10.396Z,61.72
2023-04-10T06:37:44.621Z,62.84
2023-04-10T06:40:17.415Z,61.71
2023-04-10T06:42:50.377Z,60.99
2023-04-10T06:45:43.001Z,62.16
2023-04-10T06:48:16.483Z,60.55
2023-04-10T06:50:49.325Z,61.33
2023-04-10T06:53:23.401Z,61.82
2023-04-10T06:55:56.735Z,61.91
2023-04-10T06:58:29.520Z,61.53
2023-04-10T07:01:04.618Z,61.20
2023-04-10T07:03:38.541Z,61.46
2023-04-10T07:06:12.136Z,61.46
2023-04-10T07:08:46.294Z,60.57
2023-04-10T07:11:19.132Z,61.25
2023-04-10T07:13:54.037Z,61.66
2023-04-10T07:16:27.532Z,60.96
2023-04-10T07:19:00.751Z,61.19
2023-04-10T07:21:34.062Z,60.40
2023-04-10T07:24:08.311Z,60.51
2023-04-10T07:26:41.183Z,61.64
2023-04-10T07:29:16.064Z,60.65
2023-04-10T07:31:49.122Z,61.98
2023-04-10T07:34:22.007Z,61.87
2023-04-10T07:36:54.753Z,60.72
2023-04-10T07:39:28.869Z,61.17
2023-04-10T07:42:01.704Z,61.19
2023-04-10T07:44:34.437Z,61.29
2023-04-10T07:47:07.264Z,61.84
2023-04-10T07:49:46.914Z,59.61
2023-04-10T07:52:20.066Z,59.93
2023-04-10T07:54:54.372Z,60.97
2023-04-10T07:57:27.295Z,62.14
2023-04-10T07:59:59.971Z,59.14
2023-04-10T08:02:33.138Z,61.86
2023-04-10T08:05:07.204Z,58.51
2023-04-10T08:07:40.065Z,55.82
2023-04-10T08:10:14.606Z,57.91
2023-04-10T08:12:47.359Z,55.91
2023-04-10T08:15:21.523Z,55.00
2023-04-10T08:17:54.542Z,54.83
2023-04-10T08:20:27.550Z,53.63
2023-04-10T08:23:09.192Z,55.35
2023-04-10T08:25:53.581Z,55.17
2023-04-10T08:28:26.425Z,54.33
2023-04-10T08:30:59.339Z,54.59
2023-04-10T08:33:32.063Z,54.93
2023-04-10T08:36:06.052Z,53.55
2023-04-10T08:38:38.972Z,54.20
2023-04-10T08:41:13.653Z,54.53
2023-04-10T08:43:47.375Z,54.42
2023-04-10T08:46:20.765Z,53.90
2023-04-10T08:48:59.120Z,52.88
2023-04-10T08:51:37.523Z,54.48
2023-04-10T08:54:19.682Z,53.03
2023-04-10T08:56:56.889Z,53.23
2023-04-10T08:59:30.827Z,53.54
2023-04-10T09:02:03.982Z,54.65
2023-04-10T09:04:37.894Z,52.23
2023-04-10T09:07:10.875Z,55.29
2023-04-10T09:09:43.475Z,52.72
2023-04-10T09:12:17.717Z,51.94
2023-04-10T09:14:53.399Z,51.84
2023-04-10T09:17:26.244Z,52.75
2023-04-10T09:19:58.945Z,53.58
2023-04-10T09:22:34.471Z,52.58
2023-04-10T09:25:28.078Z,52.04
2023-04-10T09:28:06.359Z,51.59
2023-04-10T09:30:41.335Z,53.30
2023-04-10T09:33:23.515Z,53.42
2023-04-10T09:36:00.045Z,53.65
2023-04-10T09:38:32.924Z,51.97
2023-04-10T09:41:09.606Z,53.05
2023-04-10T09:43:46.026Z,52.22
2023-04-10T09:46:28.705Z,51.47
2023-04-10T09:49:05.055Z,52.14
2023-04-10T09:51:39.541Z,51.54
2023-04-10T09:54:12.775Z,52.50
2023-04-10T09:56:47.117Z,52.23
2023-04-10T09:59:21.404Z,51.80
2023-04-10T10:01:54.273Z,52.82
2023-04-10T10:04:28.275Z,52.43
2023-04-10T10:07:01.711Z,52.00
2023-04-10T10:09:36.419Z,50.74
2023-04-10T10:12:11.106Z,53.08
2023-04-10T10:14:58.839Z,53.41
2023-04-10T10:17:42.406Z,55.68
2023-04-10T10:20:19.504Z,57.12
2023-04-10T10:22:54.102Z,54.13
2023-04-10T10:25:27.681Z,54.23
2023-04-10T10:28:03.684Z,55.71
2023-04-10T10:30:39.005Z,56.75
2023-04-10T10:33:13.742Z,54.87
2023-04-10T10:35:47.769Z,56.53
2023-04-10T10:38:21.480Z,56.29
2023-04-10T10:41:03.091Z,53.21
2023-04-10T10:43:48.086Z,55.50
2023-04-10T10:46:27.844Z,57.60
2023-04-10T10:49:02.173Z,53.46
2023-04-10T10:51:44.632Z,54.49
2023-04-10T10:54:31.182Z,57.67
2023-04-10T10:57:06.656Z,55.08
2023-04-10T10:59:58.035Z,54.92
2023-04-10T11:02:32.260Z,53.42
2023-04-10T11:05:05.511Z,56.14
2023-04-10T11:08:08.953Z,55.95
2023-04-10T11:11:00.866Z,53.90
2023-04-10T11:13:34.116Z,56.15
2023-04-10T11:16:10.405Z,58.29
2023-04-10T11:19:13.839Z,57.23
2023-04-10T11:22:05.729Z,55.04
2023-04-10T11:24:59.669Z,58.27
2023-04-10T11:27:53.637Z,58.08
2023-04-10T11:30:27.992Z,55.33
2023-04-10T11:33:02.097Z,54.97
2023-04-10T11:35:36.358Z,54.09
2023-04-10T11:38:18.959Z,57.33
2023-04-10T11:41:01.523Z,56.21
2023-04-10T11:43:35.832Z,55.86
2023-04-10T11:46:08.939Z,54.72
2023-04-10T11:48:41.779Z,53.00
2023-04-10T11:51:16.087Z,52.68
2023-04-10T11:53:49.288Z,52.76
2023-04-10T11:56:22.892Z,52.56
2023-04-10T11:58:56.258Z,52.57
2023-04-10T12:01:29.554Z,53.79
2023-04-10T12:04:02.812Z,53.85
2023-04-10T12:06:37.503Z,54.54
2023-04-10T12:09:14.663Z,54.44
2023-04-10T12:11:53.049Z,55.12
2023-04-10T12:14:31.888Z,55.33
2023-04-10T12:17:09.997Z,55.71
2023-04-10T12:19:42.971Z,55.72
2023-04-10T12:22:17.145Z,56.27
2023-04-10T12:24:51.820Z,56.23
2023-04-10T12:27:26.632Z,56.80
2023-04-10T12:30:00.238Z,57.05
2023-04-10T12:32:33.182Z,57.61
2023-04-10T12:35:06.164Z,57.94
2023-04-10T12:37:50.738Z,58.17
2023-04-10T12:40:23.695Z,58.83
2023-04-10T12:42:56.446Z,58.81
2023-04-10T12:45:44.502Z,59.83
2023-04-10T12:48:24.357Z,59.33
2023-04-10T12:50:57.297Z,59.64
2023-04-10T12:53:31.331Z,60.64
2023-04-10T12:56:06.398Z,60.49
2023-04-10T12:58:39.477Z,60.20
2023-04-10T13:01:14.165Z,60.40
2023-04-10T13:03:49.105Z,60.53
2023-04-10T13:06:21.888Z,60.48
2023-04-10T13:08:56.412Z,61.82
2023-04-10T13:11:29.486Z,61.07
2023-04-10T13:14:02.314Z,61.00
2023-04-10T13:16:35.564Z,62.05
2023-04-10T13:19:08.432Z,61.71
2023-04-10T13:21:41.195Z,61.66
2023-04-10T13:24:16.710Z,62.55
2023-04-10T13:26:49.919Z,62.20
2023-04-10T13:29:22.665Z,63.09
2023-04-10T13:31:55.633Z,63.20
2023-04-10T13:34:28.356Z,63.50
2023-04-10T13:37:01.816Z,63.15
2023-04-10T13:39:36.091Z,63.43
2023-04-10T13:42:08.763Z,64.01
2023-04-10T13:44:41.692Z,64.11
2023-04-10T13:47:14.738Z,64.55
2023-04-10T13:49:47.784Z,64.23
2023-04-10T13:52:20.407Z,64.93
2023-04-10T13:54:56.850Z,64.42
2023-04-10T13:57:30.704Z,64.48
2023-04-10T14:00:04.709Z,64.12
2023-04-10T14:02:45.627Z,64.30
2023-04-10T14:05:19.332Z,65.00
2023-04-10T14:07:56.798Z,64.92
2023-04-10T14:10:31.561Z,65.16
2023-04-10T14:13:04.250Z,64.70
2023-04-10T14:15:37.291Z,65.50
2023-04-10T14:18:10.390Z,66.12
2023-04-10T14:20:43.361Z,65.52
2023-04-10T14:23:18.438Z,65.12
2023-04-10T14:25:52.882Z,65.62
2023-04-10T14:28:25.768Z,65.65
2023-04-10T14:30:59.433Z,65.38
2023-04-10T14:33:32.561Z,65.69
2023-04-10T14:36:06.417Z,66.38
2023-04-10T14:38:39.826Z,66.86
2023-04-10T14:41:16.384Z,67.32
2023-04-10T14:43:49.744Z,66.80
2023-04-10T14:46:23.063Z,67.28
2023-04-10T14:48:58.027Z,66.89
2023-04-10T14:51:30.976Z,66.26
2023-04-10T14:54:04.411Z,66.13
2023-04-10T14:56:38.744Z,66.78
2023-04-10T14:59:13.900Z,66.86
2023-04-10T15:01:46.664Z,67.13
2023-04-10T15:04:19.521Z,67.10
2023-04-10T15:06:55.339Z,67.24
2023-04-10T15:09:28.086Z,67.75
2023-04-10T15:12:02.217Z,67.84
2023-04-10T15:14:35.228Z,67.88
2023-04-10T15:17:08.128Z,68.09
2023-04-10T15:19:41.187Z,68.33
2023-04-10T15:22:16.362Z,68.24
2023-04-10T15:24:50.874Z,67.65
2023-04-10T15:27:26.669Z,68.57
2023-04-10T15:29:59.409Z,68.51
2023-04-10T15:32:32.488Z,68.59
2023-04-10T15:35:06.361Z,68.53
2023-04-10T15:37:39.083Z,68.57
2023-04-10T15:40:12.210Z,68.65
2023-04-10T15:42:46.647Z,68.60
2023-04-10T15:45:20.612Z,69.08
2023-04-10T15:47:53.280Z,69.18
2023-04-10T15:50:26.447Z,69.12
2023-04-10T15:52:59.279Z,69.59
2023-04-10T15:55:31.817Z,69.57
2023-04-10T15:58:07.953Z,69.78
2023-04-10T16:00:41.186Z,69.55
2023-04-10T16:03:14.537Z,69.57
2023-04-10T16:05:47.315Z,69.57
2023-04-10T16:08:20.623Z,69.31
2023-04-10T16:10:53.548Z,69.35
2023-04-10T16:13:27.580Z,70.03
2023-04-10T16:16:01.123Z,68.94
2023-04-10T16:18:34.008Z,69.31
2023-04-10T16:21:09.229Z,69.21
2023-04-10T16:23:42.102Z,70.40
2023-04-10T16:26:14.849Z,69.90
2023-04-10T16:28:48.924Z,69.56
2023-04-10T16:31:21.759Z,68.96
2023-04-10T16:33:54.456Z,68.80
2023-04-10T16:36:27.255Z,68.93
2023-04-10T16:39:00.092Z,69.09
2023-04-10T16:41:32.846Z,68.98
2023-04-10T16:44:07.210Z,68.90
2023-04-10T16:46:39.961Z,68.81
2023-04-10T16:49:13.089Z,68.85
2023-04-10T16:51:45.805Z,68.27
2023-04-10T16:54:18.951Z,68.44
2023-04-10T16:56:51.798Z,68.45
2023-04-10T16:59:26.040Z,68.28
2023-04-10T17:01:59.201Z,68.30
2023-04-10T17:04:32.067Z,67.96
2023-04-10T17:07:04.749Z,70.63
2023-04-10T17:09:38.061Z,69.05
2023-04-10T17:12:11.133Z,68.09
2023-04-10T17:14:45.412Z,67.93
2023-04-10T17:17:18.564Z,68.63
2023-04-10T17:19:51.499Z,68.22
2023-04-10T17:22:24.205Z,67.97
2023-04-10T17:24:56.996Z,68.02
2023-04-10T17:27:29.781Z,68.11
2023-04-10T17:30:04.079Z,68.04
2023-04-10T17:32:37.050Z,67.73
2023-04-10T17:35:10.096Z,67.71
2023-04-10T17:37:43.026Z,67.96
2023-04-10T17:40:15.871Z,67.39
2023-04-10T17:42:55.122Z,67.39
2023-04-10T17:45:29.917Z,67.31
2023-04-10T17:48:03.129Z,67.29
2023-04-10T17:50:36.570Z,66.95
2023-04-10T17:53:11.993Z,67.08
2023-04-10T17:55:47.319Z,66.76
2023-04-10T17:58:20.446Z,66.66
2023-04-10T18:00:56.956Z,66.52
2023-04-10T18:03:29.956Z,66.50
2023-04-10T18:06:02.833Z,66.86
2023-04-10T18:08:35.867Z,67.31
2023-04-10T18:11:09.316Z,66.70
2023-04-10T18:13:42.262Z,66.88
2023-04-10T18:16:17.437Z,67.23
2023-04-10T18:18:50.443Z,67.48
2023-04-10T18:21:23.086Z,66.70
2023-04-10T18:23:56.098Z,66.26
2023-04-10T18:26:31.993Z,66.58
2023-04-10T18:29:05.432Z,66.51
2023-04-10T18:31:39.700Z,66.52
2023-04-10T18:34:12.570Z,66.31
2023-04-10T18:36:45.338Z,66.21
2023-04-10T18:39:18.135Z,67.18
2023-04-10T18:41:50.898Z,66.47
2023-04-10T18:44:24.685Z,66.65
2023-04-10T18:47:04.486Z,66.86
2023-04-10T18:49:41.011Z,68.23
2023-04-10T18:52:13.803Z,67.00
2023-04-10T18:54:46.722Z,67.33
2023-04-10T18:57:19.458Z,66.97
2023-04-10T18:59:52.308Z,66.99
2023-04-10T19:02:26.894Z,67.86
2023-04-10T19:05:00.164Z,67.34
2023-04-10T19:07:33.585Z,67.28
2023-04-10T19:10:07.413Z,67.73
2023-04-10T19:12:40.464Z,67.39
2023-04-10T19:15:13.728Z,67.31
2023-04-10T19:17:48.210Z,67.04
2023-04-10T19:20:49.912Z,67.07
2023-04-10T19:23:14.500Z,67.15
2023-04-10T19:25:48.749Z,66.67
2023-04-10T19:28:23.239Z,67.05
2023-04-10T19:31:01.378Z,67.51
2023-04-10T19:33:35.946Z,67.35
2023-04-10T19:36:16.597Z,67.90
2023-04-10T19:38:51.232Z,67.54
2023-04-10T19:41:24.451Z,67.32
2023-04-10T19:43:58.642Z,67.54
2023-04-10T19:46:36.354Z,67.38
2023-04-10T19:49:10.685Z,67.51
2023-04-10T19:51:43.718Z,67.37
2023-04-10T19:54:19.929Z,67.49
2023-04-10T19:56:56.789Z,67.58
2023-04-10T19:59:30.390Z,67.06
2023-04-10T20:02:06.437Z,67.11
2023-04-10T20:04:41.100Z,66.69
2023-04-10T20:07:16.007Z,66.83
2023-04-10T20:09:49.356Z,67.28
2023-04-10T20:12:22.430Z,67.17
2023-04-10T20:14:57.264Z,67.36
2023-04-10T20:17:44.890Z,66.96
2023-04-10T20:20:19.100Z,67.27
2023-04-10T20:22:52.112Z,67.18
2023-04-10T20:25:24.814Z,67.02
2023-04-10T20:27:57.950Z,66.86
2023-04-10T20:30:31.980Z,67.26
2023-04-10T20:33:05.033Z,67.76
2023-04-10T20:35:39.696Z,67.36
2023-04-10T20:38:12.492Z,66.74
2023-04-10T20:40:46.119Z,67.11
2023-04-10T20:43:19.028Z,68.12
2023-04-10T20:45:51.945Z,67.24
2023-04-10T20:48:24.646Z,66.98
2023-04-10T20:50:58.955Z,66.63
2023-04-10T20:53:31.838Z,66.83
2023-04-10T20:56:06.330Z,67.19
2023-04-10T20:58:39.426Z,67.09
2023-04-10T21:01:12.076Z,67.18
2023-04-10T21:03:45.001Z,67.78
2023-04-10T21:06:19.133Z,67.27
2023-04-10T21:08:53.838Z,67.25
2023-04-10T21:11:27.328Z,67.54
2023-04-10T21:14:00.250Z,67.93
2023-04-10T21:16:35.035Z,67.90
2023-04-10T21:19:08.042Z,67.89
2023-04-10T21:21:42.016Z,67.55
2023-04-10T21:24:14.752Z,67.30
2023-04-10T21:26:47.523Z,67.06
2023-04-10T21:29:20.459Z,67.13
2023-04-10T21:31:53.429Z,66.85
2023-04-10T21:34:26.267Z,67.34
2023-04-10T21:37:00.930Z,66.96
2023-04-10T21:39:33.597Z,66.41
2023-04-10T21:42:07.641Z,66.57
2023-04-10T21:44:40.470Z,67.25
2023-04-10T21:47:14.382Z,66.56
2023-04-10T21:49:47.076Z,66.43
2023-04-10T21:52:21.582Z,66.27
2023-04-10T21:55:01.858Z,67.77
2023-04-10T21:57:35.560Z,66.49
2023-04-10T22:00:09.542Z,66.75
2023-04-10T22:02:42.412Z,66.52
2023-04-10T22:05:15.905Z,67.08
2023-04-10T22:07:50.071Z,66.70
2023-04-10T22:10:22.818Z,67.22
2023-04-10T22:12:55.687Z,67.42
2023-04-10T22:30:15.603Z,66.61
2023-04-10T22:35:56.310Z,66.75
2023-04-10T22:38:32.496Z,66.66
2023-04-10T22:41:06.630Z,66.55
2023-04-10T22:43:39.395Z,67.04
2023-04-10T22:46:13.542Z,67.34
2023-04-10T22:48:47.845Z,66.97
2023-04-10T22:51:21.024Z,67.39
2023-04-10T22:53:54.811Z,67.54
2023-04-10T22:56:29.394Z,67.19
2023-04-10T22:59:02.160Z,67.50
2023-04-10T23:01:36.584Z,67.64
2023-04-10T23:04:09.718Z,67.60
2023-04-10T23:06:42.885Z,67.60
2023-04-10T23:09:15.792Z,67.61
2023-04-10T23:11:51.194Z,67.58
2023-04-10T23:14:23.993Z,67.77
2023-04-10T23:16:58.049Z,67.56
2023-04-10T23:19:30.814Z,67.68
2023-04-10T23:22:03.609Z,68.20
2023-04-10T23:24:36.346Z,67.92
2023-04-10T23:27:09.090Z,67.84
2023-04-10T23:29:41.779Z,67.67
2023-04-10T23:32:16.838Z,67.85
2023-04-10T23:34:49.659Z,67.71
2023-04-10T23:37:22.388Z,67.91
2023-04-10T23:39:55.153Z,67.57
2023-04-10T23:42:27.927Z,68.26
2023-04-10T23:45:00.602Z,68.29
2023-04-10T23:47:35.093Z,68.35
2023-04-10T23:50:08.996Z,67.87
2023-04-10T23:52:41.892Z,68.12
2023-04-10T23:55:14.456Z,68.14
2023-04-10T23:57:47.126Z,68.16
